createdAt,value
2018-01-13T00:00:32.053Z,50.53
2018-01-13T00:03:00.468Z,47.20
2018-01-13T00:05:28.918Z,54.03
2018-01-13T00:07:57.579Z,44.90
2018-01-13T00:10:26.081Z,54.77
2018-01-13T00:12:54.578Z,64.13
2018-01-13T00:15:22.997Z,65.97
2018-01-13T00:17:51.544Z,73.90
2018-01-13T00:20:20.115Z,68.90
2018-01-13T00:22:48.690Z,73.47
2018-01-13T00:25:17.122Z,81.40
2018-01-13T00:27:45.642Z,74.33
2018-01-13T00:30:14.217Z,86.80
2018-01-13T00:32:42.816Z,84.43
2018-01-13T00:35:11.244Z,80.90
2018-01-13T00:37:39.692Z,95.93
2018-01-13T00:40:08.097Z,72.53
2018-01-13T00:42:36.477Z,86.43
2018-01-13T00:45:04.906Z,80.77
2018-01-13T00:47:33.513Z,139.97
2018-01-13T00:50:02.088Z,110.07
2018-01-13T00:52:30.623Z,166.57
2018-01-13T00:54:59.087Z,129.53
2018-01-13T00:57:27.499Z,134.80
2018-01-13T00:59:55.871Z,209.03
2018-01-13T01:02:24.243Z,123.17
2018-01-13T01:04:52.614Z,319.87
2018-01-13T01:07:20.979Z,218.27
2018-01-13T01:09:49.392Z,308.93
2018-01-13T01:12:17.776Z,298.53
2018-01-13T01:14:46.151Z,227.47
2018-01-13T01:17:14.507Z,141.17
2018-01-13T01:19:42.875Z,246.40
2018-01-13T01:22:11.262Z,190.23
2018-01-13T01:24:39.665Z,140.07
2018-01-13T01:27:08.029Z,96.83
2018-01-13T01:29:36.408Z,159.10
2018-01-13T01:32:04.782Z,159.63
2018-01-13T01:34:33.143Z,112.40
2018-01-13T01:37:01.547Z,98.63
2018-01-13T01:39:29.939Z,105.07
2018-01-13T01:41:58.319Z,153.90
2018-01-13T01:44:26.686Z,96.50
2018-01-13T01:46:55.060Z,175.50
2018-01-13T01:49:23.458Z,133.70
2018-01-13T01:51:51.825Z,205.77
2018-01-13T01:54:20.179Z,187.47
2018-01-13T01:56:48.550Z,226.20
2018-01-13T01:59:16.924Z,189.77
2018-01-13T02:01:45.323Z,99.40
2018-01-13T02:04:13.708Z,102.30
2018-01-13T02:06:42.074Z,116.73
2018-01-13T02:09:10.463Z,221.70
2018-01-13T02:11:38.834Z,80.63
2018-01-13T02:14:07.562Z,117.17
2018-01-13T02:16:35.922Z,122.37
2018-01-13T02:19:04.442Z,101.93
2018-01-13T02:21:33.059Z,184.97
2018-01-13T02:24:01.543Z,82.97
2018-01-13T02:26:29.986Z,136.93
2018-01-13T02:28:58.420Z,122.23
2018-01-13T02:31:26.848Z,96.30
2018-01-13T02:33:55.270Z,97.17
2018-01-13T02:36:23.688Z,94.37
2018-01-13T02:38:52.175Z,82.07
2018-01-13T02:41:20.565Z,81.00
2018-01-13T02:43:48.997Z,84.13
2018-01-13T02:46:17.442Z,83.87
2018-01-13T02:48:45.851Z,88.00
2018-01-13T02:51:14.516Z,110.33
2018-01-13T02:53:43.012Z,93.67
2018-01-13T02:56:11.511Z,82.93
2018-01-13T02:58:39.963Z,80.57
2018-01-13T03:01:08.381Z,83.77
2018-01-13T03:03:37.283Z,74.37
2018-01-13T03:06:05.819Z,73.03
2018-01-13T03:08:34.202Z,74.80
2018-01-13T03:11:02.682Z,70.23
2018-01-13T03:13:31.174Z,66.93
2018-01-13T03:15:59.812Z,78.80
2018-01-13T03:18:28.285Z,59.13
2018-01-13T03:20:56.685Z,80.20
2018-01-13T03:23:25.185Z,72.33
2018-01-13T03:25:53.624Z,71.03
2018-01-13T03:28:22.105Z,72.43
2018-01-13T03:30:50.520Z,76.07
2018-01-13T03:33:18.927Z,114.37
2018-01-13T03:35:47.467Z,77.30
2018-01-13T03:38:15.878Z,72.40
2018-01-13T03:40:44.575Z,69.60
2018-01-13T03:43:13.102Z,80.23
2018-01-13T03:45:41.530Z,86.60
2018-01-13T03:48:10.157Z,67.60
2018-01-13T03:50:38.602Z,67.53
2018-01-13T03:53:07.151Z,64.73
2018-01-13T03:55:35.540Z,66.83
2018-01-13T03:58:04.051Z,76.53
2018-01-13T04:00:33.053Z,66.40
2018-01-13T04:03:01.531Z,62.40
2018-01-13T04:05:30.297Z,78.97
2018-01-13T04:07:58.689Z,64.63
2018-01-13T04:10:27.465Z,63.07
2018-01-13T04:12:55.948Z,60.73
2018-01-13T04:15:24.455Z,54.77
2018-01-13T04:17:53.033Z,45.47
2018-01-13T04:20:21.464Z,34.20
2018-01-13T04:22:49.988Z,43.70
2018-01-13T04:25:18.415Z,39.20
2018-01-13T04:27:46.838Z,46.57
2018-01-13T04:30:15.253Z,40.10
2018-01-13T04:32:43.889Z,34.97
2018-01-13T04:35:12.323Z,34.27
2018-01-13T04:37:40.723Z,38.63
2018-01-13T04:40:09.229Z,44.57
2018-01-13T04:42:37.876Z,35.80
2018-01-13T04:45:06.441Z,33.87
2018-01-13T04:47:34.991Z,44.97
2018-01-13T04:50:03.379Z,43.73
2018-01-13T04:52:31.783Z,42.27
2018-01-13T04:55:00.259Z,44.23
2018-01-13T04:57:28.788Z,41.70
2018-01-13T04:59:57.259Z,50.77
2018-01-13T05:02:25.894Z,34.63
2018-01-13T05:04:54.401Z,42.87
2018-01-13T05:07:22.880Z,37.10
2018-01-13T05:09:51.331Z,45.27
2018-01-13T05:12:19.761Z,46.90
2018-01-13T05:14:48.209Z,41.23
2018-01-13T05:17:16.660Z,41.78
2018-01-13T05:19:45.072Z,38.40
2018-01-13T05:22:13.648Z,38.70
2018-01-13T05:24:42.082Z,40.60
2018-01-13T05:27:10.561Z,37.23
2018-01-13T05:29:39.120Z,35.70
2018-01-13T05:32:07.571Z,34.20
2018-01-13T05:34:35.985Z,34.67
2018-01-13T05:37:04.499Z,40.20
2018-01-13T05:39:32.939Z,39.03
2018-01-13T05:42:01.403Z,41.40
2018-01-13T05:44:30.358Z,44.97
2018-01-13T05:46:58.759Z,42.57
2018-01-13T05:49:27.203Z,36.10
2018-01-13T05:51:55.600Z,38.20
2018-01-13T05:54:23.965Z,36.17
2018-01-13T05:56:52.387Z,31.53
2018-01-13T05:59:20.774Z,41.23
2018-01-13T06:01:49.139Z,33.13
2018-01-13T06:04:17.513Z,32.50
2018-01-13T06:06:45.901Z,32.30
2018-01-13T06:09:14.251Z,35.43
2018-01-13T06:11:42.624Z,46.13
2018-01-13T06:14:10.995Z,38.40
2018-01-13T06:16:39.379Z,32.70
2018-01-13T06:19:07.764Z,30.60
2018-01-13T06:21:36.158Z,36.03
2018-01-13T06:24:04.524Z,33.60
2018-01-13T06:26:32.887Z,30.40
2018-01-13T06:29:01.246Z,31.50
2018-01-13T06:31:29.679Z,31.43
2018-01-13T06:33:58.038Z,33.33
2018-01-13T06:36:26.401Z,33.10
2018-01-13T06:38:54.769Z,36.40
2018-01-13T06:41:23.147Z,43.87
2018-01-13T06:43:51.549Z,34.57
2018-01-13T06:46:19.988Z,32.67
2018-01-13T06:48:48.382Z,46.07
2018-01-13T06:51:16.748Z,38.63
2018-01-13T06:53:45.099Z,39.60
2018-01-13T06:56:13.529Z,38.67
2018-01-13T06:58:41.889Z,40.30
2018-01-13T07:01:10.260Z,36.95
2018-01-13T07:03:38.652Z,37.90
2018-01-13T07:06:07.032Z,39.10
2018-01-13T07:08:35.460Z,35.97
2018-01-13T07:11:03.831Z,36.00
2018-01-13T07:13:32.219Z,41.93
2018-01-13T07:16:00.588Z,40.27
2018-01-13T07:18:28.964Z,35.23
2018-01-13T07:20:57.456Z,38.30
2018-01-13T07:23:25.802Z,48.30
2018-01-13T07:25:54.177Z,40.10
2018-01-13T07:28:22.580Z,41.30
2018-01-13T07:30:50.947Z,38.90
2018-01-13T07:33:19.327Z,34.80
2018-01-13T07:35:47.722Z,37.67
2018-01-13T07:38:16.085Z,35.20
2018-01-13T07:40:44.496Z,32.80
2018-01-13T07:43:13.017Z,31.87
2018-01-13T07:45:41.405Z,35.30
2018-01-13T07:48:09.768Z,36.37
2018-01-13T07:50:38.127Z,35.35
2018-01-13T07:53:06.563Z,36.65
2018-01-13T07:55:34.942Z,27.63
2018-01-13T07:58:03.303Z,33.83
2018-01-13T08:00:31.666Z,24.40
2018-01-13T08:03:00.276Z,34.35
2018-01-13T08:05:30.207Z,29.87
2018-01-13T08:07:58.860Z,28.33
2018-01-13T08:10:27.453Z,27.62
2018-01-13T08:12:55.864Z,24.70
2018-01-13T08:15:24.294Z,25.87
2018-01-13T08:17:52.705Z,24.95
2018-01-13T08:20:21.079Z,30.65
2018-01-13T08:22:49.454Z,25.20
2018-01-13T08:25:17.849Z,26.00
2018-01-13T08:27:46.217Z,26.33
2018-01-13T08:30:14.615Z,31.43
2018-01-13T08:32:42.978Z,27.77
2018-01-13T08:35:11.346Z,27.63
2018-01-13T08:37:39.775Z,33.17
2018-01-13T08:40:08.166Z,29.65
2018-01-13T08:42:36.525Z,36.60
2018-01-13T08:45:04.918Z,31.85
2018-01-13T08:47:33.331Z,29.90
2018-01-13T08:50:01.777Z,34.40
2018-01-13T08:52:30.137Z,31.50
2018-01-13T08:54:58.492Z,31.27
2018-01-13T08:57:26.858Z,30.53
2018-01-13T08:59:55.343Z,24.80
2018-01-13T09:02:25.183Z,25.37
2018-01-13T09:04:53.563Z,27.60
2018-01-13T09:07:21.935Z,25.23
2018-01-13T09:09:50.302Z,17.80
2018-01-13T09:12:18.778Z,25.00
2018-01-13T09:14:47.152Z,26.13
2018-01-13T09:17:15.548Z,23.17
2018-01-13T09:19:43.911Z,19.43
2018-01-13T09:22:12.275Z,23.03
2018-01-13T09:24:40.671Z,17.60
2018-01-13T09:27:09.051Z,26.83
2018-01-13T09:29:37.415Z,20.90
2018-01-13T09:32:05.774Z,22.17
2018-01-13T09:34:34.192Z,20.77
2018-01-13T09:37:02.589Z,18.40
2018-01-13T09:39:30.981Z,18.83
2018-01-13T09:41:59.385Z,21.00
2018-01-13T09:44:27.787Z,25.73
2018-01-13T09:46:56.267Z,24.57
2018-01-13T09:49:24.668Z,24.40
2018-01-13T09:51:53.056Z,29.83
2018-01-13T09:54:21.412Z,20.37
2018-01-13T09:56:49.767Z,27.10
2018-01-13T09:59:18.126Z,48.10
2018-01-13T10:01:46.616Z,46.80
2018-01-13T10:04:14.992Z,27.00
2018-01-13T10:06:43.396Z,35.80
2018-01-13T10:09:11.771Z,36.73
2018-01-13T10:11:40.129Z,56.90
2018-01-13T10:14:08.521Z,59.33
2018-01-13T10:16:36.917Z,52.22
2018-01-13T10:19:05.331Z,57.43
2018-01-13T10:21:33.752Z,48.80
2018-01-13T10:24:02.265Z,52.73
2018-01-13T10:26:30.623Z,39.33
2018-01-13T10:28:59.006Z,29.73
2018-01-13T10:31:27.500Z,31.87
2018-01-13T10:33:55.940Z,29.33
2018-01-13T10:36:24.300Z,30.83
2018-01-13T10:38:52.662Z,29.50
2018-01-13T10:41:21.053Z,29.57
2018-01-13T10:43:49.411Z,26.40
2018-01-13T10:46:17.848Z,26.03
2018-01-13T10:48:46.214Z,21.90
2018-01-13T10:51:14.587Z,26.47
2018-01-13T10:53:42.984Z,30.90
2018-01-13T10:56:11.473Z,28.43
2018-01-13T10:58:39.847Z,24.73
2018-01-13T11:01:08.222Z,29.27
2018-01-13T11:03:37.419Z,29.70
2018-01-13T11:06:05.986Z,28.80
2018-01-13T11:08:34.342Z,23.03
2018-01-13T11:11:02.706Z,26.27
2018-01-13T11:13:31.087Z,23.83
2018-01-13T11:15:59.487Z,19.33
2018-01-13T11:18:27.909Z,21.50
2018-01-13T11:20:56.273Z,24.40
2018-01-13T11:23:24.725Z,27.40
2018-01-13T11:25:53.060Z,27.73
2018-01-13T11:28:21.428Z,34.03
2018-01-13T11:30:49.816Z,24.33
2018-01-13T11:33:18.183Z,28.67
2018-01-13T11:35:46.597Z,28.23
2018-01-13T11:38:15.000Z,29.20
2018-01-13T11:40:43.393Z,29.33
2018-01-13T11:43:11.772Z,31.40
2018-01-13T11:45:40.139Z,27.53
2018-01-13T11:48:08.548Z,28.50
2018-01-13T11:50:36.923Z,24.00
2018-01-13T11:53:05.302Z,22.75
2018-01-13T11:55:33.671Z,25.43
2018-01-13T11:58:02.072Z,28.97
2018-01-13T12:00:30.469Z,22.47
2018-01-13T12:02:58.848Z,21.90
2018-01-13T12:05:27.247Z,20.80
2018-01-13T12:07:55.607Z,19.97
2018-01-13T12:10:23.965Z,23.20
2018-01-13T12:12:52.429Z,22.73
2018-01-13T12:15:20.807Z,20.43
2018-01-13T12:17:49.196Z,20.27
2018-01-13T12:20:17.608Z,20.63
2018-01-13T12:22:45.992Z,28.63
2018-01-13T12:25:14.380Z,27.23
2018-01-13T12:27:42.756Z,25.83
2018-01-13T12:30:11.171Z,26.00
2018-01-13T12:32:39.587Z,28.07
2018-01-13T12:35:07.947Z,24.70
2018-01-13T12:37:36.318Z,28.00
2018-01-13T12:40:04.680Z,24.03
2018-01-13T12:42:33.073Z,24.63
2018-01-13T12:45:01.481Z,29.00
2018-01-13T12:47:29.846Z,22.80
2018-01-13T12:49:58.225Z,26.53
2018-01-13T12:52:26.613Z,25.75
2018-01-13T12:54:54.986Z,28.02
2018-01-13T12:57:23.550Z,27.87
2018-01-13T12:59:51.900Z,45.93
2018-01-13T13:02:20.274Z,27.87
2018-01-13T13:04:48.654Z,29.02
2018-01-13T13:07:17.043Z,27.62
2018-01-13T13:09:45.441Z,28.67
2018-01-13T13:12:13.791Z,21.93
2018-01-13T13:14:42.205Z,24.77
2018-01-13T13:17:10.560Z,21.20
2018-01-13T13:19:39.021Z,23.05
2018-01-13T13:22:07.379Z,23.60
2018-01-13T13:24:35.803Z,23.65
2018-01-13T13:27:04.222Z,20.35
2018-01-13T13:29:32.584Z,23.40
2018-01-13T13:32:00.984Z,25.42
2018-01-13T13:34:29.361Z,20.27
2018-01-13T13:36:57.719Z,25.10
2018-01-13T13:39:26.152Z,20.83
2018-01-13T13:41:54.526Z,22.13
2018-01-13T13:44:22.928Z,23.43
2018-01-13T13:46:51.331Z,27.35
2018-01-13T13:49:19.747Z,22.77
2018-01-13T13:51:48.163Z,20.73
2018-01-13T13:54:16.576Z,19.55
2018-01-13T13:56:44.928Z,24.37
2018-01-13T13:59:13.323Z,22.30
2018-01-13T14:01:41.737Z,19.65
2018-01-13T14:04:10.362Z,23.70
2018-01-13T14:06:38.739Z,22.02
2018-01-13T14:09:07.173Z,21.65
2018-01-13T14:11:35.542Z,19.80
2018-01-13T14:14:03.925Z,24.65
2018-01-13T14:16:32.334Z,19.35
2018-01-13T14:19:00.820Z,28.27
2018-01-13T14:21:29.183Z,30.80
2018-01-13T14:23:57.595Z,28.60
2018-01-13T14:26:26.020Z,36.95
2018-01-13T14:28:54.412Z,24.70
2018-01-13T14:31:22.810Z,27.60
2018-01-13T14:33:51.178Z,31.40
2018-01-13T14:36:19.547Z,26.45
2018-01-13T14:38:47.936Z,24.33
2018-01-13T14:41:16.465Z,30.15
2018-01-13T14:43:44.830Z,35.85
2018-01-13T14:46:13.206Z,27.45
2018-01-13T14:48:41.591Z,32.65
2018-01-13T14:51:09.967Z,28.58
2018-01-13T14:53:38.356Z,28.80
2018-01-13T14:56:06.728Z,24.37
2018-01-13T14:58:35.102Z,29.90
2018-01-13T15:01:03.487Z,29.37
2018-01-13T15:03:31.868Z,31.92
2018-01-13T15:06:00.322Z,29.52
2018-01-13T15:08:28.677Z,30.60
2018-01-13T15:10:57.062Z,29.42
2018-01-13T15:13:25.557Z,34.65
2018-01-13T15:15:53.947Z,31.98
2018-01-13T15:18:22.395Z,26.55
2018-01-13T15:20:50.775Z,32.13
2018-01-13T15:23:19.170Z,31.20
2018-01-13T15:25:47.630Z,38.30
2018-01-13T15:28:16.038Z,34.90
2018-01-13T15:30:44.443Z,31.08
2018-01-13T15:33:12.922Z,36.78
2018-01-13T15:35:41.347Z,33.33
2018-01-13T15:38:09.733Z,29.65
2018-01-13T15:40:38.133Z,27.20
2018-01-13T15:43:06.616Z,33.90
2018-01-13T15:45:34.975Z,30.75
2018-01-13T15:48:03.351Z,30.45
2018-01-13T15:50:31.715Z,25.27
2018-01-13T15:53:00.080Z,32.75
2018-01-13T15:55:28.468Z,27.37
2018-01-13T15:57:56.883Z,29.77
2018-01-13T16:00:25.287Z,29.45
2018-01-13T16:02:53.661Z,29.65
2018-01-13T16:05:22.077Z,26.37
2018-01-13T16:07:50.435Z,33.65
2018-01-13T16:10:18.802Z,28.30
2018-01-13T16:12:47.180Z,34.47
2018-01-13T16:15:15.563Z,35.95
2018-01-13T16:17:43.960Z,34.35
2018-01-13T16:20:12.318Z,31.35
2018-01-13T16:22:40.699Z,43.08
2018-01-13T16:25:09.095Z,34.40
2018-01-13T16:27:37.537Z,34.75
2018-01-13T16:30:06.037Z,33.17
2018-01-13T16:32:34.457Z,31.12
2018-01-13T16:35:02.827Z,30.25
2018-01-13T16:37:31.186Z,34.13
2018-01-13T16:39:59.553Z,35.20
2018-01-13T16:42:28.062Z,38.33
2018-01-13T16:44:56.430Z,32.42
2018-01-13T16:47:24.828Z,35.00
2018-01-13T16:49:53.222Z,37.47
2018-01-13T16:52:21.603Z,27.92
2018-01-13T16:54:50.032Z,34.08
2018-01-13T16:57:18.394Z,34.75
2018-01-13T16:59:46.778Z,34.17
2018-01-13T17:02:15.147Z,34.08
2018-01-13T17:04:43.514Z,38.20
2018-01-13T17:07:11.914Z,41.65
2018-01-13T17:09:40.288Z,36.60
2018-01-13T17:12:08.654Z,31.95
2018-01-13T17:14:37.026Z,40.63
2018-01-13T17:17:05.407Z,35.55
2018-01-13T17:19:33.810Z,40.70
2018-01-13T17:22:02.187Z,36.40
2018-01-13T17:24:30.566Z,36.33
2018-01-13T17:26:58.931Z,34.78
2018-01-13T17:29:27.290Z,33.53
2018-01-13T17:31:55.793Z,35.17
2018-01-13T17:34:24.156Z,51.25
2018-01-13T17:36:52.519Z,44.88
2018-01-13T17:39:20.879Z,59.53
2018-01-13T17:41:49.295Z,48.45
2018-01-13T17:44:17.680Z,54.00
2018-01-13T17:46:46.078Z,54.42
2018-01-13T17:49:14.448Z,48.67
2018-01-13T17:51:42.799Z,57.92
2018-01-13T17:54:11.213Z,53.92
2018-01-13T17:56:39.602Z,60.42
2018-01-13T17:59:08.017Z,64.80
2018-01-13T18:01:36.392Z,57.33
2018-01-13T18:04:04.788Z,61.50
2018-01-13T18:06:33.199Z,65.10
2018-01-13T18:09:01.562Z,57.95
2018-01-13T18:11:29.956Z,59.50
2018-01-13T18:13:58.331Z,55.30
2018-01-13T18:16:26.720Z,49.60
2018-01-13T18:18:55.119Z,52.90
2018-01-13T18:21:23.491Z,51.63
2018-01-13T18:23:51.858Z,58.47
2018-01-13T18:26:20.344Z,51.63
2018-01-13T18:28:48.705Z,46.63
2018-01-13T18:31:17.199Z,46.10
2018-01-13T18:33:45.554Z,53.28
2018-01-13T18:36:13.904Z,56.50
2018-01-13T18:38:42.290Z,50.15
2018-01-13T18:41:10.658Z,51.17
2018-01-13T18:43:39.047Z,59.40
2018-01-13T18:46:07.460Z,50.58
2018-01-13T18:48:35.816Z,50.97
2018-01-13T18:51:04.179Z,51.17
2018-01-13T18:53:32.534Z,52.03
2018-01-13T18:56:00.934Z,52.00
2018-01-13T18:58:29.311Z,45.20
2018-01-13T19:00:57.706Z,47.30
2018-01-13T19:03:26.084Z,55.28
2018-01-13T19:05:54.459Z,52.75
2018-01-13T19:08:22.855Z,53.40
2018-01-13T19:10:51.366Z,54.60
2018-01-13T19:13:19.752Z,58.00
2018-01-13T19:15:48.148Z,55.92
2018-01-13T19:18:16.508Z,50.92
2018-01-13T19:20:44.871Z,53.40
2018-01-13T19:23:13.263Z,52.47
2018-01-13T19:25:41.829Z,50.63
2018-01-13T19:28:10.188Z,47.80
2018-01-13T19:30:38.604Z,55.83
2018-01-13T19:33:07.034Z,46.88
2018-01-13T19:35:35.422Z,56.28
2018-01-13T19:38:03.791Z,53.67
2018-01-13T19:40:32.269Z,51.37
2018-01-13T19:43:00.694Z,58.75
2018-01-13T19:45:29.145Z,61.55
2018-01-13T19:47:57.582Z,59.38
2018-01-13T19:50:26.050Z,53.55
2018-01-13T19:52:54.403Z,51.45
2018-01-13T19:55:22.794Z,46.80
2018-01-13T19:57:51.186Z,43.95
2018-01-13T20:00:19.528Z,42.22
2018-01-13T20:02:47.938Z,45.83
2018-01-13T20:05:16.335Z,39.92
2018-01-13T20:07:44.737Z,47.05
2018-01-13T20:10:13.144Z,48.00
2018-01-13T20:12:41.529Z,42.50
2018-01-13T20:15:09.887Z,46.30
2018-01-13T20:17:38.303Z,45.85
2018-01-13T20:20:06.785Z,44.72
2018-01-13T20:22:40.752Z,49.33
2018-01-13T20:25:09.143Z,50.12
2018-01-13T20:27:37.561Z,45.55
2018-01-13T20:30:06.090Z,48.47
2018-01-13T20:32:34.500Z,50.90
2018-01-13T20:35:02.905Z,48.60
2018-01-13T20:37:31.267Z,48.65
2018-01-13T20:39:59.654Z,48.25
2018-01-13T20:42:28.023Z,48.22
2018-01-13T20:44:56.400Z,49.70
2018-01-13T20:47:24.811Z,47.50
2018-01-13T20:49:53.282Z,53.47
2018-01-13T20:52:21.651Z,54.70
2018-01-13T20:54:50.028Z,52.33
2018-01-13T20:57:18.398Z,48.97
2018-01-13T20:59:46.854Z,55.00
2018-01-13T21:02:15.215Z,49.40
2018-01-13T21:04:43.596Z,45.88
2018-01-13T21:07:11.961Z,52.17
2018-01-13T21:09:40.331Z,40.70
2018-01-13T21:12:08.809Z,48.22
2018-01-13T21:14:37.187Z,59.00
2018-01-13T21:17:05.560Z,66.82
2018-01-13T21:19:33.934Z,55.05
2018-01-13T21:22:02.303Z,65.70
2018-01-13T21:24:30.696Z,63.65
2018-01-13T21:26:59.095Z,61.28
2018-01-13T21:29:27.473Z,62.47
2018-01-13T21:31:55.831Z,57.28
2018-01-13T21:34:24.205Z,54.42
2018-01-13T21:36:52.614Z,53.60
2018-01-13T21:39:21.002Z,49.65
2018-01-13T21:41:49.366Z,63.08
2018-01-13T21:44:17.729Z,54.17
2018-01-13T21:46:46.090Z,57.10
2018-01-13T21:49:14.442Z,57.05
2018-01-13T21:51:42.830Z,68.70
2018-01-13T21:54:11.189Z,64.25
2018-01-13T21:56:39.591Z,61.55
2018-01-13T21:59:07.959Z,65.40
2018-01-13T22:01:36.344Z,57.47
2018-01-13T22:04:04.876Z,61.90
2018-01-13T22:06:33.329Z,56.03
2018-01-13T22:09:01.691Z,59.67
2018-01-13T22:11:30.205Z,57.67
2018-01-13T22:13:58.573Z,55.75
2018-01-13T22:16:26.962Z,68.57
2018-01-13T22:18:55.326Z,66.62
2018-01-13T22:21:23.752Z,65.80
2018-01-13T22:23:52.127Z,65.65
2018-01-13T22:26:20.480Z,63.75
2018-01-13T22:28:48.925Z,60.58
2018-01-13T22:31:17.345Z,58.13
2018-01-13T22:33:45.740Z,56.92
2018-01-13T22:36:14.115Z,64.50
2018-01-13T22:38:42.496Z,73.40
2018-01-13T22:41:11.834Z,68.40
2018-01-13T22:43:40.211Z,54.95
2018-01-13T22:46:08.567Z,80.32
2018-01-13T22:48:36.946Z,78.82
2018-01-13T22:51:05.349Z,82.35
2018-01-13T22:53:33.718Z,86.53
2018-01-13T22:56:02.079Z,77.43
2018-01-13T22:58:30.439Z,79.15
2018-01-13T23:00:58.811Z,69.28
2018-01-13T23:03:27.173Z,71.07
2018-01-13T23:05:55.605Z,74.43
2018-01-13T23:08:23.975Z,91.60
2018-01-13T23:10:52.349Z,80.18
2018-01-13T23:13:20.807Z,85.25
2018-01-13T23:15:49.184Z,53.72
2018-01-13T23:18:17.582Z,75.65
2018-01-13T23:20:45.926Z,75.62
2018-01-13T23:23:14.292Z,86.05
2018-01-13T23:25:42.655Z,63.00
2018-01-13T23:28:11.077Z,96.93
2018-01-13T23:30:39.442Z,82.18
2018-01-13T23:33:07.815Z,71.30
2018-01-13T23:35:36.158Z,65.22
2018-01-13T23:38:04.548Z,71.75
2018-01-13T23:40:33.004Z,66.40
2018-01-13T23:43:01.375Z,91.37
2018-01-13T23:45:29.732Z,74.45
2018-01-13T23:47:58.083Z,69.95
2018-01-13T23:50:26.439Z,68.30
2018-01-13T23:52:54.821Z,70.12
2018-01-13T23:55:23.171Z,64.62
2018-01-13T23:57:51.567Z,73.20
